Aérodrome :
LOGIN :

S'inscrire | Disclaimer

   EN    FR    IT 

 










Légende :    VFR   VFR Marginal   IFR   IFR Intensif   IFR Très Intensif
Visi : 
Plafond : 
>= 8 km
>= 3000ft
5 à 8 km
1000 à 3000 ft
1500m à 5 km
500 à 1000 ft
800 à 1500m
200 à 500 ft
< 800m
< 200 ft
Symboles :   Orages  Brouillard  Fortes neiges  Fortes précipitations  Vent > 20 kt
SIGMETs :   Divers  Orages  Givrage  Turbulence  Onde Orograph.  Cendres Volcan.







- Altitude de l'aérodrome : 433 ft
- Code IATA : CCF
- Voir les cartes d'approche


LFMK - Carcassonne

DERNIER METAR :
  • 241000Z AUTO 28008KT 250V310 CAVOK 24/14 Q1020 NOSIG

METARs EXPIRÉS :
  • 240930Z AUTO 27007KT 210V310 CAVOK 22/14 Q1020 NOSIG
  • 240900Z AUTO 28006KT 240V300 CAVOK 21/14 Q1020 NOSIG
  • 240830Z AUTO 00000KT CAVOK 16/14 Q1020 BECMG 29010KT
  • 240800Z AUTO VRB01KT CAVOK 14/13 Q1020 NOSIG
  • 240730Z AUTO 00000KT CAVOK 13/12 Q1020 BECMG 29010KT

TAF TAF LFMK
Valide du 24 à 09h jusqu'au 25 à 09h UTC


240800Z 2409/2509 VRB02KT CAVOK
BECMG 2409/2411 29010KT
BECMG 2418/2420 VRB02KT
BECMG 2506/2509 OVC010
Pas de NOTAMs connus pour ce terrain.



MET'MAP, la Météo Aéronautique d'un coup d'oeil ! - Copyright ORBIFLY Décembre 2007 - Disclaimer

ORBIFLY MET'MAP TEAM :

Programmation & Développement : Alexandra Zaïnal
Conception & Développement : Baudouin d'Aumeries
Co-Programmation & Développement : Marc-Olivier Méhu
Soutien technique & logistique : Manuel Goepfert

Contact : metmap@orbifly.com




SOURCES & CREDITS :

   NOAA